sensor_id;sensor_type;location;lat;lon;timestamp;P1;durP1;ratioP1;P2;durP2;ratioP2
10059;SDS011;5069;49.306;8.636;2023-09-19T00:00:06;1.70;;;1.10;;
10059;SDS011;5069;49.306;8.636;2023-09-19T00:03:08;2.40;;;1.40;;
10059;SDS011;5069;49.306;8.636;2023-09-19T00:06:10;2.10;;;1.30;;
10059;SDS011;5069;49.306;8.636;2023-09-19T00:09:14;3.10;;;1.53;;
10059;SDS011;5069;49.306;8.636;2023-09-19T00:12:16;4.23;;;1.30;;
10059;SDS011;5069;49.306;8.636;2023-09-19T00:15:17;2.17;;;1.10;;
10059;SDS011;5069;49.306;8.636;2023-09-19T00:18:20;2.80;;;1.33;;
10059;SDS011;5069;49.306;8.636;2023-09-19T00:21:31;2.23;;;1.20;;
10059;SDS011;5069;49.306;8.636;2023-09-19T00:24:33;2.07;;;1.20;;
10059;SDS011;5069;49.306;8.636;2023-09-19T00:27:34;4.97;;;1.27;;
10059;SDS011;5069;49.306;8.636;2023-09-19T00:30:36;2.13;;;1.30;;
10059;SDS011;5069;49.306;8.636;2023-09-19T00:33:39;5.00;;;1.10;;
10059;SDS011;5069;49.306;8.636;2023-09-19T00:36:41;5.03;;;1.37;;
10059;SDS011;5069;49.306;8.636;2023-09-19T00:39:44;3.93;;;1.10;;
10059;SDS011;5069;49.306;8.636;2023-09-19T00:42:46;4.50;;;1.20;;
10059;SDS011;5069;49.306;8.636;2023-09-19T00:45:48;3.00;;;1.10;;
10059;SDS011;5069;49.306;8.636;2023-09-19T00:48:52;2.97;;;0.90;;
10059;SDS011;5069;49.306;8.636;2023-09-19T00:51:54;2.77;;;1.20;;
10059;SDS011;5069;49.306;8.636;2023-09-19T00:54:56;3.30;;;1.30;;
10059;SDS011;5069;49.306;8.636;2023-09-19T00:57:57;3.10;;;1.27;;
10059;SDS011;5069;49.306;8.636;2023-09-19T01:00:59;2.40;;;1.20;;
10059;SDS011;5069;49.306;8.636;2023-09-19T01:04:02;3.27;;;1.27;;
10059;SDS011;5069;49.306;8.636;2023-09-19T01:07:03;5.73;;;1.10;;
10059;SDS011;5069;49.306;8.636;2023-09-19T01:10:06;2.60;;;1.27;;
10059;SDS011;5069;49.306;8.636;2023-09-19T01:13:22;4.80;;;1.30;;
10059;SDS011;5069;49.306;8.636;2023-09-19T01:16:35;2.70;;;1.10;;
10059;SDS011;5069;49.306;8.636;2023-09-19T01:27:06;3.47;;;1.37;;
10059;SDS011;5069;49.306;8.636;2023-09-19T01:30:17;2.23;;;1.30;;
10059;SDS011;5069;49.306;8.636;2023-09-19T01:33:23;2.00;;;1.10;;
10059;SDS011;5069;49.306;8.636;2023-09-19T01:36:26;3.67;;;1.20;;
10059;SDS011;5069;49.306;8.636;2023-09-19T01:39:38;2.07;;;1.20;;
10059;SDS011;5069;49.306;8.636;2023-09-19T01:42:49;4.50;;;1.57;;
10059;SDS011;5069;49.306;8.636;2023-09-19T01:49:27;1.97;;;1.20;;
10059;SDS011;5069;49.306;8.636;2023-09-19T01:52:39;1.77;;;1.00;;
10059;SDS011;5069;49.306;8.636;2023-09-19T01:55:48;1.67;;;1.00;;
10059;SDS011;5069;49.306;8.636;2023-09-19T01:58:53;2.90;;;1.20;;
10059;SDS011;5069;49.306;8.636;2023-09-19T02:02:00;1.67;;;1.20;;
10059;SDS011;5069;49.306;8.636;2023-09-19T02:05:03;2.67;;;1.50;;
10059;SDS011;5069;49.306;8.636;2023-09-19T02:08:05;1.33;;;0.90;;
10059;SDS011;5069;49.306;8.636;2023-09-19T02:11:07;3.87;;;1.30;;
10059;SDS011;5069;49.306;8.636;2023-09-19T02:14:08;4.80;;;1.30;;
10059;SDS011;5069;49.306;8.636;2023-09-19T02:17:10;4.23;;;1.10;;
10059;SDS011;5069;49.306;8.636;2023-09-19T02:20:13;4.10;;;1.27;;
10059;SDS011;5069;49.306;8.636;2023-09-19T02:23:16;3.10;;;1.40;;
10059;SDS011;5069;49.306;8.636;2023-09-19T02:26:18;3.47;;;1.30;;
10059;SDS011;5069;49.306;8.636;2023-09-19T02:29:21;5.57;;;1.30;;
10059;SDS011;5069;49.306;8.636;2023-09-19T02:32:23;1.73;;;1.10;;
10059;SDS011;5069;49.306;8.636;2023-09-19T02:35:25;1.50;;;1.20;;
10059;SDS011;5069;49.306;8.636;2023-09-19T02:38:27;7.33;;;2.03;;
10059;SDS011;5069;49.306;8.636;2023-09-19T02:41:30;2.47;;;1.20;;
10059;SDS011;5069;49.306;8.636;2023-09-19T02:44:31;2.10;;;0.90;;
10059;SDS011;5069;49.306;8.636;2023-09-19T02:47:34;2.13;;;1.20;;
10059;SDS011;5069;49.306;8.636;2023-09-19T02:50:36;2.20;;;1.10;;
10059;SDS011;5069;49.306;8.636;2023-09-19T02:53:38;3.93;;;1.30;;
10059;SDS011;5069;49.306;8.636;2023-09-19T02:56:40;3.33;;;1.23;;
10059;SDS011;5069;49.306;8.636;2023-09-19T02:59:41;2.00;;;1.20;;
10059;SDS011;5069;49.306;8.636;2023-09-19T03:02:44;5.10;;;1.50;;
10059;SDS011;5069;49.306;8.636;2023-09-19T03:05:46;3.93;;;1.50;;
10059;SDS011;5069;49.306;8.636;2023-09-19T03:08:51;2.60;;;1.30;;
10059;SDS011;5069;49.306;8.636;2023-09-19T03:11:55;3.03;;;1.50;;
10059;SDS011;5069;49.306;8.636;2023-09-19T03:14:56;5.53;;;1.70;;
10059;SDS011;5069;49.306;8.636;2023-09-19T03:17:58;5.00;;;1.50;;
10059;SDS011;5069;49.306;8.636;2023-09-19T03:21:01;2.53;;;1.57;;
10059;SDS011;5069;49.306;8.636;2023-09-19T03:24:03;1.27;;;1.13;;
10059;SDS011;5069;49.306;8.636;2023-09-19T03:27:08;5.00;;;1.80;;
10059;SDS011;5069;49.306;8.636;2023-09-19T03:30:11;3.73;;;1.57;;
10059;SDS011;5069;49.306;8.636;2023-09-19T03:33:16;1.43;;;1.17;;
10059;SDS011;5069;49.306;8.636;2023-09-19T03:36:18;4.40;;;1.60;;
10059;SDS011;5069;49.306;8.636;2023-09-19T03:39:23;1.77;;;1.60;;
10059;SDS011;5069;49.306;8.636;2023-09-19T03:42:24;4.30;;;1.90;;
10059;SDS011;5069;49.306;8.636;2023-09-19T03:45:28;4.07;;;1.60;;
10059;SDS011;5069;49.306;8.636;2023-09-19T03:48:29;4.03;;;1.53;;
10059;SDS011;5069;49.306;8.636;2023-09-19T03:51:32;4.17;;;1.57;;
10059;SDS011;5069;49.306;8.636;2023-09-19T03:54:35;3.40;;;1.50;;
10059;SDS011;5069;49.306;8.636;2023-09-19T03:57:37;2.23;;;1.60;;
10059;SDS011;5069;49.306;8.636;2023-09-19T04:00:39;5.43;;;1.57;;
10059;SDS011;5069;49.306;8.636;2023-09-19T04:03:40;3.30;;;1.40;;
10059;SDS011;5069;49.306;8.636;2023-09-19T04:06:49;4.43;;;1.70;;
10059;SDS011;5069;49.306;8.636;2023-09-19T04:09:51;2.00;;;1.60;;
10059;SDS011;5069;49.306;8.636;2023-09-19T04:12:55;2.07;;;1.53;;
10059;SDS011;5069;49.306;8.636;2023-09-19T04:15:57;2.73;;;1.50;;
10059;SDS011;5069;49.306;8.636;2023-09-19T04:18:58;3.37;;;1.90;;
10059;SDS011;5069;49.306;8.636;2023-09-19T04:22:00;3.03;;;1.70;;
10059;SDS011;5069;49.306;8.636;2023-09-19T04:25:02;1.70;;;1.40;;
10059;SDS011;5069;49.306;8.636;2023-09-19T04:28:04;2.30;;;1.43;;
10059;SDS011;5069;49.306;8.636;2023-09-19T04:31:07;5.30;;;1.87;;
10059;SDS011;5069;49.306;8.636;2023-09-19T04:34:09;2.83;;;1.30;;
10059;SDS011;5069;49.306;8.636;2023-09-19T04:37:11;1.40;;;1.30;;
10059;SDS011;5069;49.306;8.636;2023-09-19T04:40:14;2.43;;;1.50;;
10059;SDS011;5069;49.306;8.636;2023-09-19T04:43:19;3.90;;;1.63;;
10059;SDS011;5069;49.306;8.636;2023-09-19T04:46:20;1.60;;;1.50;;
10059;SDS011;5069;49.306;8.636;2023-09-19T04:49:22;4.10;;;1.90;;
10059;SDS011;5069;49.306;8.636;2023-09-19T04:52:23;2.50;;;1.70;;
10059;SDS011;5069;49.306;8.636;2023-09-19T04:55:25;4.07;;;1.90;;
10059;SDS011;5069;49.306;8.636;2023-09-19T04:58:27;3.00;;;1.97;;
10059;SDS011;5069;49.306;8.636;2023-09-19T05:01:29;3.77;;;1.70;;
10059;SDS011;5069;49.306;8.636;2023-09-19T05:04:30;2.13;;;1.73;;
10059;SDS011;5069;49.306;8.636;2023-09-19T05:07:34;3.60;;;1.97;;
10059;SDS011;5069;49.306;8.636;2023-09-19T05:10:35;4.73;;;2.00;;
10059;SDS011;5069;49.306;8.636;2023-09-19T05:13:40;5.27;;;2.33;;
10059;SDS011;5069;49.306;8.636;2023-09-19T05:16:42;4.57;;;2.00;;
10059;SDS011;5069;49.306;8.636;2023-09-19T05:19:44;4.00;;;2.13;;
10059;SDS011;5069;49.306;8.636;2023-09-19T05:22:47;3.60;;;2.10;;
10059;SDS011;5069;49.306;8.636;2023-09-19T05:25:48;4.73;;;1.90;;
10059;SDS011;5069;49.306;8.636;2023-09-19T05:28:50;3.73;;;2.07;;
10059;SDS011;5069;49.306;8.636;2023-09-19T05:31:54;3.27;;;2.03;;
10059;SDS011;5069;49.306;8.636;2023-09-19T05:34:56;4.03;;;2.60;;
10059;SDS011;5069;49.306;8.636;2023-09-19T05:37:58;3.90;;;2.00;;
10059;SDS011;5069;49.306;8.636;2023-09-19T05:40:59;4.90;;;2.20;;
10059;SDS011;5069;49.306;8.636;2023-09-19T05:44:01;3.27;;;2.10;;
10059;SDS011;5069;49.306;8.636;2023-09-19T05:47:04;5.47;;;2.10;;
10059;SDS011;5069;49.306;8.636;2023-09-19T05:50:06;7.70;;;2.20;;
10059;SDS011;5069;49.306;8.636;2023-09-19T05:53:10;12.20;;;2.50;;
10059;SDS011;5069;49.306;8.636;2023-09-19T05:56:16;6.33;;;1.90;;
10059;SDS011;5069;49.306;8.636;2023-09-19T05:59:20;6.10;;;1.90;;
10059;SDS011;5069;49.306;8.636;2023-09-19T06:02:21;3.47;;;2.10;;
10059;SDS011;5069;49.306;8.636;2023-09-19T06:05:23;4.63;;;1.90;;
10059;SDS011;5069;49.306;8.636;2023-09-19T06:08:27;4.23;;;2.00;;
10059;SDS011;5069;49.306;8.636;2023-09-19T06:11:30;7.60;;;2.10;;
10059;SDS011;5069;49.306;8.636;2023-09-19T06:14:33;27.17;;;3.23;;
10059;SDS011;5069;49.306;8.636;2023-09-19T06:17:35;5.17;;;2.30;;
10059;SDS011;5069;49.306;8.636;2023-09-19T06:20:39;5.23;;;2.10;;
10059;SDS011;5069;49.306;8.636;2023-09-19T06:23:45;5.83;;;2.10;;
10059;SDS011;5069;49.306;8.636;2023-09-19T06:26:47;3.80;;;1.90;;
10059;SDS011;5069;49.306;8.636;2023-09-19T06:29:49;3.67;;;1.80;;
10059;SDS011;5069;49.306;8.636;2023-09-19T06:32:57;3.27;;;1.90;;
10059;SDS011;5069;49.306;8.636;2023-09-19T06:35:59;5.97;;;2.20;;
10059;SDS011;5069;49.306;8.636;2023-09-19T06:39:01;4.10;;;2.10;;
10059;SDS011;5069;49.306;8.636;2023-09-19T06:42:05;3.60;;;2.10;;
10059;SDS011;5069;49.306;8.636;2023-09-19T06:45:07;4.87;;;1.97;;
10059;SDS011;5069;49.306;8.636;2023-09-19T06:48:10;4.30;;;1.87;;
10059;SDS011;5069;49.306;8.636;2023-09-19T06:51:11;5.90;;;2.10;;
10059;SDS011;5069;49.306;8.636;2023-09-19T06:54:13;4.37;;;2.30;;
10059;SDS011;5069;49.306;8.636;2023-09-19T06:57:15;4.47;;;2.10;;
10059;SDS011;5069;49.306;8.636;2023-09-19T07:00:17;5.67;;;2.10;;
10059;SDS011;5069;49.306;8.636;2023-09-19T07:03:23;3.53;;;1.97;;
10059;SDS011;5069;49.306;8.636;2023-09-19T07:06:27;6.70;;;2.10;;
10059;SDS011;5069;49.306;8.636;2023-09-19T07:09:29;3.00;;;1.70;;
10059;SDS011;5069;49.306;8.636;2023-09-19T07:12:31;4.40;;;2.30;;
10059;SDS011;5069;49.306;8.636;2023-09-19T07:15:34;5.47;;;1.97;;
10059;SDS011;5069;49.306;8.636;2023-09-19T07:18:38;4.30;;;1.83;;
10059;SDS011;5069;49.306;8.636;2023-09-19T07:21:39;8.70;;;1.90;;
10059;SDS011;5069;49.306;8.636;2023-09-19T07:24:41;4.03;;;2.00;;
10059;SDS011;5069;49.306;8.636;2023-09-19T07:27:42;6.83;;;1.97;;
10059;SDS011;5069;49.306;8.636;2023-09-19T07:30:44;3.73;;;1.70;;
10059;SDS011;5069;49.306;8.636;2023-09-19T07:33:46;3.07;;;1.57;;
10059;SDS011;5069;49.306;8.636;2023-09-19T07:36:47;5.33;;;1.70;;
10059;SDS011;5069;49.306;8.636;2023-09-19T07:39:49;5.87;;;1.70;;
10059;SDS011;5069;49.306;8.636;2023-09-19T07:42:52;3.73;;;1.67;;
10059;SDS011;5069;49.306;8.636;2023-09-19T07:45:53;5.97;;;1.57;;
10059;SDS011;5069;49.306;8.636;2023-09-19T07:48:55;3.53;;;1.47;;
10059;SDS011;5069;49.306;8.636;2023-09-19T07:51:56;3.83;;;1.60;;
10059;SDS011;5069;49.306;8.636;2023-09-19T07:54:58;3.53;;;1.47;;
10059;SDS011;5069;49.306;8.636;2023-09-19T07:58:02;3.47;;;1.50;;
10059;SDS011;5069;49.306;8.636;2023-09-19T08:01:08;4.63;;;1.60;;
10059;SDS011;5069;49.306;8.636;2023-09-19T08:04:11;3.57;;;1.50;;
10059;SDS011;5069;49.306;8.636;2023-09-19T08:07:13;3.37;;;1.50;;
10059;SDS011;5069;49.306;8.636;2023-09-19T08:10:15;4.90;;;1.30;;
10059;SDS011;5069;49.306;8.636;2023-09-19T08:13:17;2.60;;;1.23;;
10059;SDS011;5069;49.306;8.636;2023-09-19T08:16:19;5.07;;;1.80;;
10059;SDS011;5069;49.306;8.636;2023-09-19T08:19:24;3.17;;;1.43;;
10059;SDS011;5069;49.306;8.636;2023-09-19T08:22:29;3.93;;;1.60;;
10059;SDS011;5069;49.306;8.636;2023-09-19T08:25:33;3.57;;;1.63;;
10059;SDS011;5069;49.306;8.636;2023-09-19T08:28:35;3.00;;;1.40;;
10059;SDS011;5069;49.306;8.636;2023-09-19T08:31:37;2.90;;;1.60;;
10059;SDS011;5069;49.306;8.636;2023-09-19T08:34:39;2.87;;;1.20;;
10059;SDS011;5069;49.306;8.636;2023-09-19T08:37:41;4.17;;;1.30;;
10059;SDS011;5069;49.306;8.636;2023-09-19T08:40:43;3.37;;;1.40;;
10059;SDS011;5069;49.306;8.636;2023-09-19T08:43:45;4.80;;;1.20;;
10059;SDS011;5069;49.306;8.636;2023-09-19T08:46:48;5.03;;;1.30;;
10059;SDS011;5069;49.306;8.636;2023-09-19T08:53:02;7.07;;;1.73;;
10059;SDS011;5069;49.306;8.636;2023-09-19T08:56:12;2.30;;;1.47;;
10059;SDS011;5069;49.306;8.636;2023-09-19T08:59:14;4.87;;;1.33;;
10059;SDS011;5069;49.306;8.636;2023-09-19T09:02:17;3.43;;;1.40;;
10059;SDS011;5069;49.306;8.636;2023-09-19T09:05:23;4.07;;;1.77;;
10059;SDS011;5069;49.306;8.636;2023-09-19T09:08:25;4.87;;;1.40;;
10059;SDS011;5069;49.306;8.636;2023-09-19T09:11:27;3.27;;;1.27;;
10059;SDS011;5069;49.306;8.636;2023-09-19T09:14:29;4.77;;;1.93;;
10059;SDS011;5069;49.306;8.636;2023-09-19T09:17:32;5.27;;;1.57;;
10059;SDS011;5069;49.306;8.636;2023-09-19T09:20:33;4.67;;;1.60;;
10059;SDS011;5069;49.306;8.636;2023-09-19T09:23:35;3.70;;;1.40;;
10059;SDS011;5069;49.306;8.636;2023-09-19T09:29:48;4.50;;;1.60;;
10059;SDS011;5069;49.306;8.636;2023-09-19T09:33:04;4.53;;;1.70;;
10059;SDS011;5069;49.306;8.636;2023-09-19T09:36:13;4.50;;;1.67;;
10059;SDS011;5069;49.306;8.636;2023-09-19T09:39:28;2.67;;;1.33;;
10059;SDS011;5069;49.306;8.636;2023-09-19T09:42:34;3.53;;;1.30;;
10059;SDS011;5069;49.306;8.636;2023-09-19T09:45:42;2.90;;;1.50;;
10059;SDS011;5069;49.306;8.636;2023-09-19T09:52:18;4.43;;;1.40;;
10059;SDS011;5069;49.306;8.636;2023-09-19T09:55:26;3.63;;;1.70;;
10059;SDS011;5069;49.306;8.636;2023-09-19T09:58:28;4.03;;;1.50;;
10059;SDS011;5069;49.306;8.636;2023-09-19T10:01:46;2.70;;;1.50;;
10059;SDS011;5069;49.306;8.636;2023-09-19T10:04:50;6.63;;;1.70;;
10059;SDS011;5069;49.306;8.636;2023-09-19T10:08:10;3.63;;;1.50;;
10059;SDS011;5069;49.306;8.636;2023-09-19T10:11:17;6.87;;;1.80;;
10059;SDS011;5069;49.306;8.636;2023-09-19T10:14:20;4.97;;;1.57;;
10059;SDS011;5069;49.306;8.636;2023-09-19T10:17:26;4.03;;;1.60;;
10059;SDS011;5069;49.306;8.636;2023-09-19T10:20:31;3.97;;;1.70;;
10059;SDS011;5069;49.306;8.636;2023-09-19T10:23:33;3.73;;;1.60;;
10059;SDS011;5069;49.306;8.636;2023-09-19T10:26:36;5.67;;;1.60;;
10059;SDS011;5069;49.306;8.636;2023-09-19T10:29:39;2.63;;;1.60;;
10059;SDS011;5069;49.306;8.636;2023-09-19T10:32:40;5.27;;;1.50;;
10059;SDS011;5069;49.306;8.636;2023-09-19T10:35:44;3.90;;;1.53;;
10059;SDS011;5069;49.306;8.636;2023-09-19T10:38:46;3.67;;;1.50;;
10059;SDS011;5069;49.306;8.636;2023-09-19T10:41:51;3.10;;;1.50;;
10059;SDS011;5069;49.306;8.636;2023-09-19T10:44:56;3.83;;;1.70;;
10059;SDS011;5069;49.306;8.636;2023-09-19T10:48:01;1.77;;;1.23;;
10059;SDS011;5069;49.306;8.636;2023-09-19T10:51:08;2.33;;;1.30;;
10059;SDS011;5069;49.306;8.636;2023-09-19T10:54:13;4.03;;;1.70;;
10059;SDS011;5069;49.306;8.636;2023-09-19T10:57:19;4.37;;;1.80;;
10059;SDS011;5069;49.306;8.636;2023-09-19T11:00:25;2.63;;;1.50;;
10059;SDS011;5069;49.306;8.636;2023-09-19T11:03:27;2.57;;;1.40;;
10059;SDS011;5069;49.306;8.636;2023-09-19T11:06:32;2.90;;;1.60;;
10059;SDS011;5069;49.306;8.636;2023-09-19T11:09:44;2.93;;;1.50;;
10059;SDS011;5069;49.306;8.636;2023-09-19T11:12:49;1.83;;;1.20;;
10059;SDS011;5069;49.306;8.636;2023-09-19T11:18:58;7.90;;;2.17;;
10059;SDS011;5069;49.306;8.636;2023-09-19T11:22:02;2.80;;;1.40;;
10059;SDS011;5069;49.306;8.636;2023-09-19T11:28:32;4.40;;;1.50;;
10059;SDS011;5069;49.306;8.636;2023-09-19T11:31:44;4.00;;;1.53;;
10059;SDS011;5069;49.306;8.636;2023-09-19T11:34:46;4.03;;;1.53;;
10059;SDS011;5069;49.306;8.636;2023-09-19T11:41:36;3.37;;;1.30;;
10059;SDS011;5069;49.306;8.636;2023-09-19T11:47:31;4.60;;;1.30;;
10059;SDS011;5069;49.306;8.636;2023-09-19T11:50:36;6.00;;;1.60;;
10059;SDS011;5069;49.306;8.636;2023-09-19T11:53:45;3.83;;;1.63;;
10059;SDS011;5069;49.306;8.636;2023-09-19T11:56:49;4.00;;;1.23;;
10059;SDS011;5069;49.306;8.636;2023-09-19T11:59:52;3.77;;;1.63;;
10059;SDS011;5069;49.306;8.636;2023-09-19T12:02:55;4.23;;;1.30;;
10059;SDS011;5069;49.306;8.636;2023-09-19T12:06:02;6.47;;;1.50;;
10059;SDS011;5069;49.306;8.636;2023-09-19T12:09:15;4.13;;;1.50;;
10059;SDS011;5069;49.306;8.636;2023-09-19T12:12:27;3.07;;;1.40;;
10059;SDS011;5069;49.306;8.636;2023-09-19T12:15:29;2.30;;;1.40;;
10059;SDS011;5069;49.306;8.636;2023-09-19T12:18:36;5.93;;;1.43;;
10059;SDS011;5069;49.306;8.636;2023-09-19T12:21:37;3.63;;;1.53;;
10059;SDS011;5069;49.306;8.636;2023-09-19T12:24:39;3.80;;;1.60;;
10059;SDS011;5069;49.306;8.636;2023-09-19T12:27:47;4.70;;;1.50;;
10059;SDS011;5069;49.306;8.636;2023-09-19T12:30:50;4.70;;;1.90;;
10059;SDS011;5069;49.306;8.636;2023-09-19T12:33:56;3.97;;;1.70;;
10059;SDS011;5069;49.306;8.636;2023-09-19T12:37:08;3.33;;;1.43;;
10059;SDS011;5069;49.306;8.636;2023-09-19T12:40:14;2.63;;;1.20;;
10059;SDS011;5069;49.306;8.636;2023-09-19T12:43:19;4.63;;;1.80;;
10059;SDS011;5069;49.306;8.636;2023-09-19T12:46:21;4.43;;;1.37;;
10059;SDS011;5069;49.306;8.636;2023-09-19T12:49:26;3.83;;;1.40;;
10059;SDS011;5069;49.306;8.636;2023-09-19T12:52:33;3.83;;;1.60;;
10059;SDS011;5069;49.306;8.636;2023-09-19T12:55:37;2.37;;;1.27;;
10059;SDS011;5069;49.306;8.636;2023-09-19T13:02:03;3.03;;;1.40;;
10059;SDS011;5069;49.306;8.636;2023-09-19T13:05:08;5.17;;;1.20;;
10059;SDS011;5069;49.306;8.636;2023-09-19T13:08:18;2.87;;;1.20;;
10059;SDS011;5069;49.306;8.636;2023-09-19T13:11:22;2.17;;;1.27;;
10059;SDS011;5069;49.306;8.636;2023-09-19T13:14:24;2.83;;;1.43;;
10059;SDS011;5069;49.306;8.636;2023-09-19T13:17:42;3.17;;;1.60;;
10059;SDS011;5069;49.306;8.636;2023-09-19T13:20:44;5.33;;;1.30;;
10059;SDS011;5069;49.306;8.636;2023-09-19T13:24:23;4.27;;;1.40;;
10059;SDS011;5069;49.306;8.636;2023-09-19T13:27:28;4.00;;;1.40;;
10059;SDS011;5069;49.306;8.636;2023-09-19T13:30:30;1.83;;;1.30;;
10059;SDS011;5069;49.306;8.636;2023-09-19T13:33:33;2.93;;;1.10;;
10059;SDS011;5069;49.306;8.636;2023-09-19T13:36:35;5.20;;;1.60;;
10059;SDS011;5069;49.306;8.636;2023-09-19T13:39:38;2.97;;;1.30;;
10059;SDS011;5069;49.306;8.636;2023-09-19T13:42:43;2.57;;;1.20;;
10059;SDS011;5069;49.306;8.636;2023-09-19T13:45:45;2.97;;;1.30;;
10059;SDS011;5069;49.306;8.636;2023-09-19T13:48:46;3.70;;;1.40;;
10059;SDS011;5069;49.306;8.636;2023-09-19T13:51:48;2.27;;;1.07;;
10059;SDS011;5069;49.306;8.636;2023-09-19T13:54:53;3.23;;;1.27;;
10059;SDS011;5069;49.306;8.636;2023-09-19T13:57:57;3.23;;;1.10;;
10059;SDS011;5069;49.306;8.636;2023-09-19T14:00:59;2.13;;;1.20;;
10059;SDS011;5069;49.306;8.636;2023-09-19T14:04:01;2.53;;;1.20;;
10059;SDS011;5069;49.306;8.636;2023-09-19T14:07:03;1.53;;;1.13;;
10059;SDS011;5069;49.306;8.636;2023-09-19T14:10:05;2.77;;;1.30;;
10059;SDS011;5069;49.306;8.636;2023-09-19T14:13:09;2.83;;;1.43;;
10059;SDS011;5069;49.306;8.636;2023-09-19T14:16:15;1.47;;;1.17;;
10059;SDS011;5069;49.306;8.636;2023-09-19T14:19:17;2.33;;;1.10;;
10059;SDS011;5069;49.306;8.636;2023-09-19T14:22:19;1.33;;;1.00;;
10059;SDS011;5069;49.306;8.636;2023-09-19T14:25:20;3.03;;;1.27;;
10059;SDS011;5069;49.306;8.636;2023-09-19T14:28:24;1.70;;;1.00;;
10059;SDS011;5069;49.306;8.636;2023-09-19T14:31:26;4.57;;;1.30;;
10059;SDS011;5069;49.306;8.636;2023-09-19T14:34:29;2.43;;;1.20;;
10059;SDS011;5069;49.306;8.636;2023-09-19T14:37:30;2.00;;;1.20;;
10059;SDS011;5069;49.306;8.636;2023-09-19T14:40:32;2.07;;;1.20;;
10059;SDS011;5069;49.306;8.636;2023-09-19T14:43:34;2.87;;;1.43;;
10059;SDS011;5069;49.306;8.636;2023-09-19T14:46:36;2.67;;;1.40;;
10059;SDS011;5069;49.306;8.636;2023-09-19T14:49:37;3.50;;;1.10;;
10059;SDS011;5069;49.306;8.636;2023-09-19T14:52:39;5.77;;;1.40;;
10059;SDS011;5069;49.306;8.636;2023-09-19T14:55:41;5.07;;;1.23;;
10059;SDS011;5069;49.306;8.636;2023-09-19T14:58:45;1.90;;;1.10;;
10059;SDS011;5069;49.306;8.636;2023-09-19T15:01:48;1.60;;;1.00;;
10059;SDS011;5069;49.306;8.636;2023-09-19T15:04:51;3.17;;;1.30;;
10059;SDS011;5069;49.306;8.636;2023-09-19T15:07:54;3.53;;;1.20;;
10059;SDS011;5069;49.306;8.636;2023-09-19T15:10:56;2.00;;;1.17;;
10059;SDS011;5069;49.306;8.636;2023-09-19T15:13:59;19.87;;;1.90;;
10059;SDS011;5069;49.306;8.636;2023-09-19T15:17:01;4.53;;;1.30;;
10059;SDS011;5069;49.306;8.636;2023-09-19T15:20:06;3.30;;;1.10;;
10059;SDS011;5069;49.306;8.636;2023-09-19T15:23:08;2.20;;;0.90;;
10059;SDS011;5069;49.306;8.636;2023-09-19T15:26:11;1.57;;;0.93;;
10059;SDS011;5069;49.306;8.636;2023-09-19T15:29:15;2.43;;;1.07;;
10059;SDS011;5069;49.306;8.636;2023-09-19T15:32:17;2.40;;;1.00;;
10059;SDS011;5069;49.306;8.636;2023-09-19T15:35:19;2.53;;;1.03;;
10059;SDS011;5069;49.306;8.636;2023-09-19T15:38:20;1.67;;;1.20;;
10059;SDS011;5069;49.306;8.636;2023-09-19T15:41:22;1.60;;;0.93;;
10059;SDS011;5069;49.306;8.636;2023-09-19T15:44:23;1.90;;;1.00;;
10059;SDS011;5069;49.306;8.636;2023-09-19T15:47:27;1.93;;;1.37;;
10059;SDS011;5069;49.306;8.636;2023-09-19T15:50:30;1.80;;;1.30;;
10059;SDS011;5069;49.306;8.636;2023-09-19T15:53:43;4.67;;;1.30;;
10059;SDS011;5069;49.306;8.636;2023-09-19T15:56:46;2.93;;;1.13;;
10059;SDS011;5069;49.306;8.636;2023-09-19T15:59:49;2.00;;;1.03;;
10059;SDS011;5069;49.306;8.636;2023-09-19T16:02:51;2.00;;;1.13;;
10059;SDS011;5069;49.306;8.636;2023-09-19T16:05:53;2.27;;;1.00;;
10059;SDS011;5069;49.306;8.636;2023-09-19T16:08:56;3.80;;;1.17;;
10059;SDS011;5069;49.306;8.636;2023-09-19T16:11:59;1.73;;;1.13;;
10059;SDS011;5069;49.306;8.636;2023-09-19T16:15:01;2.20;;;1.20;;
10059;SDS011;5069;49.306;8.636;2023-09-19T16:18:02;5.97;;;1.30;;
10059;SDS011;5069;49.306;8.636;2023-09-19T16:21:05;3.07;;;1.20;;
10059;SDS011;5069;49.306;8.636;2023-09-19T16:24:12;5.43;;;1.13;;
10059;SDS011;5069;49.306;8.636;2023-09-19T16:27:13;3.33;;;1.00;;
10059;SDS011;5069;49.306;8.636;2023-09-19T16:30:16;1.52;;;1.05;;
10059;SDS011;5069;49.306;8.636;2023-09-19T16:33:19;1.13;;;1.02;;
10059;SDS011;5069;49.306;8.636;2023-09-19T16:36:21;4.17;;;1.27;;
10059;SDS011;5069;49.306;8.636;2023-09-19T16:39:23;5.18;;;1.15;;
10059;SDS011;5069;49.306;8.636;2023-09-19T16:42:25;3.50;;;1.07;;
10059;SDS011;5069;49.306;8.636;2023-09-19T16:45:28;2.03;;;1.27;;
10059;SDS011;5069;49.306;8.636;2023-09-19T16:48:30;2.53;;;1.10;;
10059;SDS011;5069;49.306;8.636;2023-09-19T16:51:32;2.40;;;1.40;;
10059;SDS011;5069;49.306;8.636;2023-09-19T16:54:34;5.93;;;1.20;;
10059;SDS011;5069;49.306;8.636;2023-09-19T16:57:36;1.40;;;1.10;;
10059;SDS011;5069;49.306;8.636;2023-09-19T17:00:37;3.23;;;1.10;;
10059;SDS011;5069;49.306;8.636;2023-09-19T17:03:39;2.67;;;1.20;;
10059;SDS011;5069;49.306;8.636;2023-09-19T17:06:41;2.63;;;1.43;;
10059;SDS011;5069;49.306;8.636;2023-09-19T17:09:47;2.67;;;1.20;;
10059;SDS011;5069;49.306;8.636;2023-09-19T17:12:49;2.63;;;1.10;;
10059;SDS011;5069;49.306;8.636;2023-09-19T17:15:58;3.37;;;1.10;;
10059;SDS011;5069;49.306;8.636;2023-09-19T17:19:10;1.42;;;1.23;;
10059;SDS011;5069;49.306;8.636;2023-09-19T17:22:13;1.95;;;1.30;;
10059;SDS011;5069;49.306;8.636;2023-09-19T17:25:15;5.63;;;1.00;;
10059;SDS011;5069;49.306;8.636;2023-09-19T17:28:17;2.58;;;1.23;;
10059;SDS011;5069;49.306;8.636;2023-09-19T17:31:19;2.47;;;1.23;;
10059;SDS011;5069;49.306;8.636;2023-09-19T17:34:23;3.17;;;1.00;;
10059;SDS011;5069;49.306;8.636;2023-09-19T17:37:25;1.93;;;1.20;;
10059;SDS011;5069;49.306;8.636;2023-09-19T17:40:27;1.83;;;1.10;;
10059;SDS011;5069;49.306;8.636;2023-09-19T17:43:32;2.07;;;1.50;;
10059;SDS011;5069;49.306;8.636;2023-09-19T17:46:35;2.30;;;1.20;;
10059;SDS011;5069;49.306;8.636;2023-09-19T17:49:39;3.07;;;1.10;;
10059;SDS011;5069;49.306;8.636;2023-09-19T17:52:42;3.00;;;1.30;;
10059;SDS011;5069;49.306;8.636;2023-09-19T17:55:44;3.00;;;1.27;;
10059;SDS011;5069;49.306;8.636;2023-09-19T17:58:47;2.57;;;1.30;;
10059;SDS011;5069;49.306;8.636;2023-09-19T18:02:00;2.13;;;1.30;;
10059;SDS011;5069;49.306;8.636;2023-09-19T18:05:03;1.43;;;1.23;;
10059;SDS011;5069;49.306;8.636;2023-09-19T18:08:05;1.77;;;1.10;;
10059;SDS011;5069;49.306;8.636;2023-09-19T18:11:11;2.17;;;1.10;;
10059;SDS011;5069;49.306;8.636;2023-09-19T18:14:16;2.57;;;1.40;;
10059;SDS011;5069;49.306;8.636;2023-09-19T18:17:19;4.27;;;1.20;;
10059;SDS011;5069;49.306;8.636;2023-09-19T18:20:22;2.50;;;1.37;;
10059;SDS011;5069;49.306;8.636;2023-09-19T18:23:24;1.57;;;1.03;;
10059;SDS011;5069;49.306;8.636;2023-09-19T18:26:29;2.00;;;1.20;;
10059;SDS011;5069;49.306;8.636;2023-09-19T18:29:31;2.90;;;1.33;;
10059;SDS011;5069;49.306;8.636;2023-09-19T18:32:32;2.47;;;1.37;;
10059;SDS011;5069;49.306;8.636;2023-09-19T18:35:34;2.93;;;1.70;;
10059;SDS011;5069;49.306;8.636;2023-09-19T18:38:39;2.63;;;1.63;;
10059;SDS011;5069;49.306;8.636;2023-09-19T18:41:42;2.63;;;1.70;;
10059;SDS011;5069;49.306;8.636;2023-09-19T18:44:45;3.20;;;1.73;;
10059;SDS011;5069;49.306;8.636;2023-09-19T18:47:47;1.63;;;1.30;;
10059;SDS011;5069;49.306;8.636;2023-09-19T18:50:49;2.10;;;1.40;;
10059;SDS011;5069;49.306;8.636;2023-09-19T18:53:52;2.33;;;1.60;;
10059;SDS011;5069;49.306;8.636;2023-09-19T18:57:12;3.67;;;1.70;;
10059;SDS011;5069;49.306;8.636;2023-09-19T19:00:15;3.27;;;2.00;;
10059;SDS011;5069;49.306;8.636;2023-09-19T19:03:17;3.20;;;1.60;;
10059;SDS011;5069;49.306;8.636;2023-09-19T19:06:19;3.37;;;1.37;;
10059;SDS011;5069;49.306;8.636;2023-09-19T19:09:22;3.70;;;2.03;;
10059;SDS011;5069;49.306;8.636;2023-09-19T19:12:24;2.07;;;1.50;;
10059;SDS011;5069;49.306;8.636;2023-09-19T19:15:26;3.83;;;1.80;;
10059;SDS011;5069;49.306;8.636;2023-09-19T19:18:27;3.43;;;1.90;;